Ellis, South Dakota
Current Conditions -  °F | °C
As of 12:56 PM on Thursday 30 Oct 2014 (Local Time) from KFSD Reporting Station
Broken Clouds Broken Clouds  
Wind Chill: 54°   Ceiling: 3100
Heat Index: 54°   Visibility: 10mi
Dew Point: 42°   Wind: 18mph
Humidity: 64%   Direction: 330°NNW
Pressure: 30.12"   Gusts: 29mph
Location:  43.577°N, 96.8137°W
Report Text: KFSD 301756Z 33016G25KT 10SM BKN031 12/06 A3012 RMK AO2 SLP203 T01220056 10128 20050 51019
Loading
Personal Weather Stations






























Interactive Weather Map
Tropical Storm Tracking
New forecast layout! Learn more

10-Day Weather Forecast

Advertisements
Track Severe Weather on mobile